sensor_id;sensor_type;location;lat;lon;timestamp;temperature;humidity
34147;DHT22;20423;49.448;9.056;2024-01-06T00:00:08;2.40;99.90
34147;DHT22;20423;49.448;9.056;2024-01-06T00:02:43;2.30;99.90
34147;DHT22;20423;49.448;9.056;2024-01-06T00:05:08;2.20;99.90
34147;DHT22;20423;49.448;9.056;2024-01-06T00:07:34;2.00;99.90
34147;DHT22;20423;49.448;9.056;2024-01-06T00:10:00;1.90;99.90
34147;DHT22;20423;49.448;9.056;2024-01-06T00:12:25;1.80;99.90
34147;DHT22;20423;49.448;9.056;2024-01-06T00:14:51;1.70;99.90
34147;DHT22;20423;49.448;9.056;2024-01-06T00:17:23;1.70;99.90
34147;DHT22;20423;49.448;9.056;2024-01-06T00:19:48;1.70;99.90
34147;DHT22;20423;49.448;9.056;2024-01-06T00:22:17;1.70;99.90
34147;DHT22;20423;49.448;9.056;2024-01-06T00:24:43;1.70;99.90
34147;DHT22;20423;49.448;9.056;2024-01-06T00:27:09;1.70;99.90
34147;DHT22;20423;49.448;9.056;2024-01-06T00:29:43;1.70;99.90
34147;DHT22;20423;49.448;9.056;2024-01-06T00:32:08;1.70;99.90
34147;DHT22;20423;49.448;9.056;2024-01-06T00:34:34;1.80;99.90
34147;DHT22;20423;49.448;9.056;2024-01-06T00:36:59;1.80;99.90
34147;DHT22;20423;49.448;9.056;2024-01-06T00:39:25;1.70;99.90
34147;DHT22;20423;49.448;9.056;2024-01-06T00:41:51;1.70;99.90
34147;DHT22;20423;49.448;9.056;2024-01-06T00:44:23;1.70;99.90
34147;DHT22;20423;49.448;9.056;2024-01-06T00:46:49;1.70;99.90
34147;DHT22;20423;49.448;9.056;2024-01-06T00:49:15;1.70;99.90
34147;DHT22;20423;49.448;9.056;2024-01-06T00:51:40;1.70;99.90
34147;DHT22;20423;49.448;9.056;2024-01-06T00:54:06;1.70;99.90
34147;DHT22;20423;49.448;9.056;2024-01-06T00:56:37;1.70;99.90
34147;DHT22;20423;49.448;9.056;2024-01-06T00:59:03;1.70;99.90
34147;DHT22;20423;49.448;9.056;2024-01-06T01:01:29;1.70;99.90
34147;DHT22;20423;49.448;9.056;2024-01-06T01:03:54;1.70;99.90
34147;DHT22;20423;49.448;9.056;2024-01-06T01:06:20;1.80;99.90
34147;DHT22;20423;49.448;9.056;2024-01-06T01:08:45;1.90;99.90
34147;DHT22;20423;49.448;9.056;2024-01-06T01:11:17;1.90;99.90
34147;DHT22;20423;49.448;9.056;2024-01-06T01:13:43;2.00;99.90
34147;DHT22;20423;49.448;9.056;2024-01-06T01:16:09;2.10;99.90
34147;DHT22;20423;49.448;9.056;2024-01-06T01:18:34;2.20;99.90
34147;DHT22;20423;49.448;9.056;2024-01-06T01:21:00;2.20;99.90
34147;DHT22;20423;49.448;9.056;2024-01-06T01:23:25;2.30;99.90
34147;DHT22;20423;49.448;9.056;2024-01-06T01:25:59;2.20;99.90
34147;DHT22;20423;49.448;9.056;2024-01-06T01:28:24;2.20;99.90
34147;DHT22;20423;49.448;9.056;2024-01-06T01:30:50;2.30;99.90
34147;DHT22;20423;49.448;9.056;2024-01-06T01:33:15;2.40;99.90
34147;DHT22;20423;49.448;9.056;2024-01-06T01:35:41;2.50;99.90
34147;DHT22;20423;49.448;9.056;2024-01-06T01:38:07;2.40;99.90
34147;DHT22;20423;49.448;9.056;2024-01-06T01:40:40;2.40;99.90
34147;DHT22;20423;49.448;9.056;2024-01-06T01:43:05;2.40;99.90
34147;DHT22;20423;49.448;9.056;2024-01-06T01:45:32;2.40;99.90
34147;DHT22;20423;49.448;9.056;2024-01-06T01:47:57;2.40;99.90
34147;DHT22;20423;49.448;9.056;2024-01-06T01:50:23;2.40;99.90
34147;DHT22;20423;49.448;9.056;2024-01-06T01:52:53;2.40;99.90
34147;DHT22;20423;49.448;9.056;2024-01-06T01:55:18;2.50;99.90
34147;DHT22;20423;49.448;9.056;2024-01-06T01:57:44;2.50;99.90
34147;DHT22;20423;49.448;9.056;2024-01-06T02:00:10;2.50;99.90
34147;DHT22;20423;49.448;9.056;2024-01-06T02:02:39;2.50;99.90
34147;DHT22;20423;49.448;9.056;2024-01-06T02:05:05;2.40;99.90
34147;DHT22;20423;49.448;9.056;2024-01-06T02:07:31;2.40;99.90
34147;DHT22;20423;49.448;9.056;2024-01-06T02:09:57;2.30;99.90
34147;DHT22;20423;49.448;9.056;2024-01-06T02:12:23;2.20;99.90
34147;DHT22;20423;49.448;9.056;2024-01-06T02:14:49;2.20;99.90
34147;DHT22;20423;49.448;9.056;2024-01-06T02:17:15;2.10;99.90
34147;DHT22;20423;49.448;9.056;2024-01-06T02:19:41;2.20;99.90
34147;DHT22;20423;49.448;9.056;2024-01-06T02:22:07;2.20;99.90
34147;DHT22;20423;49.448;9.056;2024-01-06T02:24:33;2.20;99.90
34147;DHT22;20423;49.448;9.056;2024-01-06T02:26:59;2.20;99.90
34147;DHT22;20423;49.448;9.056;2024-01-06T02:29:24;2.30;99.90
34147;DHT22;20423;49.448;9.056;2024-01-06T02:31:53;2.30;99.90
34147;DHT22;20423;49.448;9.056;2024-01-06T02:34:19;2.30;99.90
34147;DHT22;20423;49.448;9.056;2024-01-06T02:36:45;2.30;99.90
34147;DHT22;20423;49.448;9.056;2024-01-06T02:39:11;2.40;99.90
34147;DHT22;20423;49.448;9.056;2024-01-06T02:41:37;2.40;99.90
34147;DHT22;20423;49.448;9.056;2024-01-06T02:44:03;2.40;99.90
34147;DHT22;20423;49.448;9.056;2024-01-06T02:46:29;2.40;99.90
34147;DHT22;20423;49.448;9.056;2024-01-06T02:48:58;2.40;99.90
34147;DHT22;20423;49.448;9.056;2024-01-06T02:51:24;2.50;99.90
34147;DHT22;20423;49.448;9.056;2024-01-06T02:53:50;2.50;99.90
34147;DHT22;20423;49.448;9.056;2024-01-06T02:56:16;2.50;99.90
34147;DHT22;20423;49.448;9.056;2024-01-06T02:58:42;2.50;99.90
34147;DHT22;20423;49.448;9.056;2024-01-06T03:01:08;2.60;99.90
34147;DHT22;20423;49.448;9.056;2024-01-06T03:03:33;2.60;99.90
34147;DHT22;20423;49.448;9.056;2024-01-06T03:05:59;2.60;99.90
34147;DHT22;20423;49.448;9.056;2024-01-06T03:08:27;2.70;99.90
34147;DHT22;20423;49.448;9.056;2024-01-06T03:10:53;2.60;99.90
34147;DHT22;20423;49.448;9.056;2024-01-06T03:13:18;2.60;99.90
34147;DHT22;20423;49.448;9.056;2024-01-06T03:15:44;2.60;99.90
34147;DHT22;20423;49.448;9.056;2024-01-06T03:18:11;2.60;99.90
34147;DHT22;20423;49.448;9.056;2024-01-06T03:20:36;2.60;99.90
34147;DHT22;20423;49.448;9.056;2024-01-06T03:23:02;2.60;99.90
34147;DHT22;20423;49.448;9.056;2024-01-06T03:25:28;2.50;99.90
34147;DHT22;20423;49.448;9.056;2024-01-06T03:27:54;2.50;99.90
34147;DHT22;20423;49.448;9.056;2024-01-06T03:30:20;2.50;99.90
34147;DHT22;20423;49.448;9.056;2024-01-06T03:32:46;2.40;99.90
34147;DHT22;20423;49.448;9.056;2024-01-06T03:35:11;2.40;99.90
34147;DHT22;20423;49.448;9.056;2024-01-06T03:37:37;2.40;99.90
34147;DHT22;20423;49.448;9.056;2024-01-06T03:40:03;2.40;99.90
34147;DHT22;20423;49.448;9.056;2024-01-06T03:42:29;2.40;99.90
34147;DHT22;20423;49.448;9.056;2024-01-06T03:45:04;2.30;99.90
34147;DHT22;20423;49.448;9.056;2024-01-06T03:47:30;2.30;99.90
34147;DHT22;20423;49.448;9.056;2024-01-06T03:49:56;2.20;99.90
34147;DHT22;20423;49.448;9.056;2024-01-06T03:52:22;2.20;99.90
34147;DHT22;20423;49.448;9.056;2024-01-06T03:54:48;2.20;99.90
34147;DHT22;20423;49.448;9.056;2024-01-06T03:57:14;2.20;99.90
34147;DHT22;20423;49.448;9.056;2024-01-06T03:59:39;2.10;99.90
34147;DHT22;20423;49.448;9.056;2024-01-06T04:02:05;2.20;99.90
34147;DHT22;20423;49.448;9.056;2024-01-06T04:04:31;2.10;99.90
34147;DHT22;20423;49.448;9.056;2024-01-06T04:06:57;2.10;99.90
34147;DHT22;20423;49.448;9.056;2024-01-06T04:09:23;2.20;99.90
34147;DHT22;20423;49.448;9.056;2024-01-06T04:12:01;2.20;99.90
34147;DHT22;20423;49.448;9.056;2024-01-06T04:15:11;2.20;99.90
34147;DHT22;20423;49.448;9.056;2024-01-06T04:17:37;2.20;99.90
34147;DHT22;20423;49.448;9.056;2024-01-06T04:20:03;2.10;99.90
34147;DHT22;20423;49.448;9.056;2024-01-06T04:22:29;2.20;99.90
34147;DHT22;20423;49.448;9.056;2024-01-06T04:24:57;2.20;99.90
34147;DHT22;20423;49.448;9.056;2024-01-06T04:27:23;2.30;99.90
34147;DHT22;20423;49.448;9.056;2024-01-06T04:30:03;2.30;99.90
34147;DHT22;20423;49.448;9.056;2024-01-06T04:32:29;2.30;99.90
34147;DHT22;20423;49.448;9.056;2024-01-06T04:34:55;2.20;99.90
34147;DHT22;20423;49.448;9.056;2024-01-06T04:37:26;2.20;99.90
34147;DHT22;20423;49.448;9.056;2024-01-06T04:39:52;2.10;99.90
34147;DHT22;20423;49.448;9.056;2024-01-06T04:42:18;2.20;99.90
34147;DHT22;20423;49.448;9.056;2024-01-06T04:44:45;2.20;99.90
34147;DHT22;20423;49.448;9.056;2024-01-06T04:47:11;2.20;99.90
34147;DHT22;20423;49.448;9.056;2024-01-06T04:49:36;2.20;99.90
34147;DHT22;20423;49.448;9.056;2024-01-06T04:52:02;2.20;99.90
34147;DHT22;20423;49.448;9.056;2024-01-06T04:54:28;2.20;99.90
34147;DHT22;20423;49.448;9.056;2024-01-06T04:56:54;2.10;99.90
34147;DHT22;20423;49.448;9.056;2024-01-06T04:59:21;2.20;99.90
34147;DHT22;20423;49.448;9.056;2024-01-06T05:01:47;2.20;99.90
34147;DHT22;20423;49.448;9.056;2024-01-06T05:04:12;2.30;99.90
34147;DHT22;20423;49.448;9.056;2024-01-06T05:06:38;2.30;99.90
34147;DHT22;20423;49.448;9.056;2024-01-06T05:09:04;2.30;99.90
34147;DHT22;20423;49.448;9.056;2024-01-06T05:11:30;2.30;99.90
34147;DHT22;20423;49.448;9.056;2024-01-06T05:13:56;2.30;99.90
34147;DHT22;20423;49.448;9.056;2024-01-06T05:16:21;2.30;99.90
34147;DHT22;20423;49.448;9.056;2024-01-06T05:18:47;2.30;99.90
34147;DHT22;20423;49.448;9.056;2024-01-06T05:21:13;2.30;99.90
34147;DHT22;20423;49.448;9.056;2024-01-06T05:23:39;2.30;99.90
34147;DHT22;20423;49.448;9.056;2024-01-06T05:26:05;2.40;99.90
34147;DHT22;20423;49.448;9.056;2024-01-06T05:28:31;2.40;99.90
34147;DHT22;20423;49.448;9.056;2024-01-06T05:30:57;2.40;99.90
34147;DHT22;20423;49.448;9.056;2024-01-06T05:33:23;2.40;99.90
34147;DHT22;20423;49.448;9.056;2024-01-06T05:35:49;2.40;99.90
34147;DHT22;20423;49.448;9.056;2024-01-06T05:38:14;2.40;99.90
34147;DHT22;20423;49.448;9.056;2024-01-06T05:40:42;2.40;99.90
34147;DHT22;20423;49.448;9.056;2024-01-06T05:43:08;2.40;99.90
34147;DHT22;20423;49.448;9.056;2024-01-06T05:45:34;2.40;99.90
34147;DHT22;20423;49.448;9.056;2024-01-06T05:48:00;2.40;99.90
34147;DHT22;20423;49.448;9.056;2024-01-06T05:50:26;2.40;99.90
34147;DHT22;20423;49.448;9.056;2024-01-06T05:52:51;2.30;99.90
34147;DHT22;20423;49.448;9.056;2024-01-06T05:55:17;2.30;99.90
34147;DHT22;20423;49.448;9.056;2024-01-06T05:57:43;2.30;99.90
34147;DHT22;20423;49.448;9.056;2024-01-06T06:00:09;2.30;99.90
34147;DHT22;20423;49.448;9.056;2024-01-06T06:02:56;2.30;99.90
34147;DHT22;20423;49.448;9.056;2024-01-06T06:05:22;2.30;99.90
34147;DHT22;20423;49.448;9.056;2024-01-06T06:07:51;2.40;99.90
34147;DHT22;20423;49.448;9.056;2024-01-06T06:10:17;2.40;99.90
34147;DHT22;20423;49.448;9.056;2024-01-06T06:12:46;2.40;99.90
34147;DHT22;20423;49.448;9.056;2024-01-06T06:15:13;2.40;99.90
34147;DHT22;20423;49.448;9.056;2024-01-06T06:20:29;2.40;99.90
34147;DHT22;20423;49.448;9.056;2024-01-06T06:23:01;2.40;99.90
34147;DHT22;20423;49.448;9.056;2024-01-06T06:25:27;2.40;99.90
34147;DHT22;20423;49.448;9.056;2024-01-06T06:27:53;2.40;99.90
34147;DHT22;20423;49.448;9.056;2024-01-06T06:30:19;2.40;99.90
34147;DHT22;20423;49.448;9.056;2024-01-06T06:32:45;2.50;99.90
34147;DHT22;20423;49.448;9.056;2024-01-06T06:35:11;2.40;99.90
34147;DHT22;20423;49.448;9.056;2024-01-06T06:37:37;2.40;99.90
34147;DHT22;20423;49.448;9.056;2024-01-06T06:40:04;2.40;99.90
34147;DHT22;20423;49.448;9.056;2024-01-06T06:42:39;2.50;99.90
34147;DHT22;20423;49.448;9.056;2024-01-06T06:45:20;2.40;99.90
34147;DHT22;20423;49.448;9.056;2024-01-06T06:47:48;2.40;99.90
34147;DHT22;20423;49.448;9.056;2024-01-06T06:50:18;2.40;99.90
34147;DHT22;20423;49.448;9.056;2024-01-06T06:52:44;2.40;99.90
34147;DHT22;20423;49.448;9.056;2024-01-06T06:55:09;2.50;99.90
34147;DHT22;20423;49.448;9.056;2024-01-06T06:57:35;2.40;99.90
34147;DHT22;20423;49.448;9.056;2024-01-06T07:00:01;2.40;99.90
34147;DHT22;20423;49.448;9.056;2024-01-06T07:02:27;2.40;99.90
34147;DHT22;20423;49.448;9.056;2024-01-06T07:04:52;2.40;99.90
34147;DHT22;20423;49.448;9.056;2024-01-06T07:07:19;2.50;99.90
34147;DHT22;20423;49.448;9.056;2024-01-06T07:09:45;2.30;99.90
34147;DHT22;20423;49.448;9.056;2024-01-06T07:12:11;2.50;99.90
34147;DHT22;20423;49.448;9.056;2024-01-06T07:14:37;2.50;99.90
34147;DHT22;20423;49.448;9.056;2024-01-06T07:17:03;2.50;99.90
34147;DHT22;20423;49.448;9.056;2024-01-06T07:19:31;2.40;99.90
34147;DHT22;20423;49.448;9.056;2024-01-06T07:21:57;2.50;99.90
34147;DHT22;20423;49.448;9.056;2024-01-06T07:24:23;2.50;99.90
34147;DHT22;20423;49.448;9.056;2024-01-06T07:26:49;2.50;99.90
34147;DHT22;20423;49.448;9.056;2024-01-06T07:29:14;2.50;99.90
34147;DHT22;20423;49.448;9.056;2024-01-06T07:31:42;2.50;99.90
34147;DHT22;20423;49.448;9.056;2024-01-06T07:34:08;2.50;99.90
34147;DHT22;20423;49.448;9.056;2024-01-06T07:36:34;2.50;99.90
34147;DHT22;20423;49.448;9.056;2024-01-06T07:38:59;2.50;99.90
34147;DHT22;20423;49.448;9.056;2024-01-06T07:41:25;2.40;99.90
34147;DHT22;20423;49.448;9.056;2024-01-06T07:43:51;2.40;99.90
34147;DHT22;20423;49.448;9.056;2024-01-06T07:46:16;2.40;99.90
34147;DHT22;20423;49.448;9.056;2024-01-06T07:48:42;2.40;99.90
34147;DHT22;20423;49.448;9.056;2024-01-06T07:51:08;2.40;99.90
34147;DHT22;20423;49.448;9.056;2024-01-06T07:53:34;2.40;99.90
34147;DHT22;20423;49.448;9.056;2024-01-06T07:55:59;2.40;99.90
34147;DHT22;20423;49.448;9.056;2024-01-06T07:58:25;2.40;99.90
34147;DHT22;20423;49.448;9.056;2024-01-06T08:00:51;2.40;99.90
34147;DHT22;20423;49.448;9.056;2024-01-06T08:03:16;2.40;99.90
34147;DHT22;20423;49.448;9.056;2024-01-06T08:05:42;2.40;99.90
34147;DHT22;20423;49.448;9.056;2024-01-06T08:08:08;2.50;99.90
34147;DHT22;20423;49.448;9.056;2024-01-06T08:10:34;2.40;99.90
34147;DHT22;20423;49.448;9.056;2024-01-06T08:12:59;2.50;99.90
34147;DHT22;20423;49.448;9.056;2024-01-06T08:15:25;2.50;99.90
34147;DHT22;20423;49.448;9.056;2024-01-06T08:17:51;2.50;99.90
34147;DHT22;20423;49.448;9.056;2024-01-06T08:20:17;2.60;99.90
34147;DHT22;20423;49.448;9.056;2024-01-06T08:22:42;2.60;99.90
34147;DHT22;20423;49.448;9.056;2024-01-06T08:25:09;2.60;99.90
34147;DHT22;20423;49.448;9.056;2024-01-06T08:27:34;2.60;99.90
34147;DHT22;20423;49.448;9.056;2024-01-06T08:30:00;2.70;99.90
34147;DHT22;20423;49.448;9.056;2024-01-06T08:32:26;2.70;99.90
34147;DHT22;20423;49.448;9.056;2024-01-06T08:34:51;2.60;99.90
34147;DHT22;20423;49.448;9.056;2024-01-06T08:37:17;2.70;99.90
34147;DHT22;20423;49.448;9.056;2024-01-06T08:39:43;2.80;99.90
34147;DHT22;20423;49.448;9.056;2024-01-06T08:42:08;2.80;99.90
34147;DHT22;20423;49.448;9.056;2024-01-06T08:44:34;2.80;99.90
34147;DHT22;20423;49.448;9.056;2024-01-06T08:47:00;2.80;99.90
34147;DHT22;20423;49.448;9.056;2024-01-06T08:49:25;2.80;99.90
34147;DHT22;20423;49.448;9.056;2024-01-06T08:51:51;2.80;99.90
34147;DHT22;20423;49.448;9.056;2024-01-06T08:54:26;2.90;99.90
34147;DHT22;20423;49.448;9.056;2024-01-06T08:56:51;3.00;99.90
34147;DHT22;20423;49.448;9.056;2024-01-06T08:59:17;3.00;99.90
34147;DHT22;20423;49.448;9.056;2024-01-06T09:01:42;3.10;99.90
34147;DHT22;20423;49.448;9.056;2024-01-06T09:04:08;3.10;99.90
34147;DHT22;20423;49.448;9.056;2024-01-06T09:06:36;3.10;99.90
34147;DHT22;20423;49.448;9.056;2024-01-06T09:09:02;3.10;99.90
34147;DHT22;20423;49.448;9.056;2024-01-06T09:11:27;3.10;99.90
34147;DHT22;20423;49.448;9.056;2024-01-06T09:13:53;3.00;99.90
34147;DHT22;20423;49.448;9.056;2024-01-06T09:16:19;3.10;99.90
34147;DHT22;20423;49.448;9.056;2024-01-06T09:18:45;3.10;99.90
34147;DHT22;20423;49.448;9.056;2024-01-06T09:21:10;3.20;99.90
34147;DHT22;20423;49.448;9.056;2024-01-06T09:23:36;3.20;99.90
34147;DHT22;20423;49.448;9.056;2024-01-06T09:26:02;3.20;99.90
34147;DHT22;20423;49.448;9.056;2024-01-06T09:28:28;3.40;99.90
34147;DHT22;20423;49.448;9.056;2024-01-06T09:30:54;3.60;99.90
34147;DHT22;20423;49.448;9.056;2024-01-06T09:33:21;3.60;99.90
34147;DHT22;20423;49.448;9.056;2024-01-06T09:35:47;3.60;99.90
34147;DHT22;20423;49.448;9.056;2024-01-06T09:38:13;3.60;99.90
34147;DHT22;20423;49.448;9.056;2024-01-06T09:40:42;3.50;99.90
34147;DHT22;20423;49.448;9.056;2024-01-06T09:43:11;3.30;99.90
34147;DHT22;20423;49.448;9.056;2024-01-06T09:45:39;3.30;99.90
34147;DHT22;20423;49.448;9.056;2024-01-06T09:48:12;3.30;99.90
34147;DHT22;20423;49.448;9.056;2024-01-06T09:50:41;3.30;99.90
34147;DHT22;20423;49.448;9.056;2024-01-06T09:53:10;3.40;99.90
34147;DHT22;20423;49.448;9.056;2024-01-06T09:55:36;3.40;99.90
34147;DHT22;20423;49.448;9.056;2024-01-06T09:58:02;3.60;99.90
34147;DHT22;20423;49.448;9.056;2024-01-06T10:00:27;3.60;99.90
34147;DHT22;20423;49.448;9.056;2024-01-06T10:02:54;3.50;99.90
34147;DHT22;20423;49.448;9.056;2024-01-06T10:05:20;3.50;99.90
34147;DHT22;20423;49.448;9.056;2024-01-06T10:07:46;3.50;99.90
34147;DHT22;20423;49.448;9.056;2024-01-06T10:10:12;3.50;99.90
34147;DHT22;20423;49.448;9.056;2024-01-06T10:12:38;3.40;99.90
34147;DHT22;20423;49.448;9.056;2024-01-06T10:15:05;3.50;99.90
34147;DHT22;20423;49.448;9.056;2024-01-06T10:17:31;3.40;99.90
34147;DHT22;20423;49.448;9.056;2024-01-06T10:19:57;3.50;99.90
34147;DHT22;20423;49.448;9.056;2024-01-06T10:22:24;3.50;99.90
34147;DHT22;20423;49.448;9.056;2024-01-06T10:24:50;3.50;99.90
34147;DHT22;20423;49.448;9.056;2024-01-06T10:27:15;3.40;99.90
34147;DHT22;20423;49.448;9.056;2024-01-06T10:29:41;3.40;99.90
34147;DHT22;20423;49.448;9.056;2024-01-06T10:32:07;3.30;99.90
34147;DHT22;20423;49.448;9.056;2024-01-06T10:34:33;3.40;99.90
34147;DHT22;20423;49.448;9.056;2024-01-06T10:37:02;3.40;99.90
34147;DHT22;20423;49.448;9.056;2024-01-06T10:39:27;3.50;99.90
34147;DHT22;20423;49.448;9.056;2024-01-06T10:41:54;3.40;99.90
34147;DHT22;20423;49.448;9.056;2024-01-06T10:44:20;3.50;99.90
34147;DHT22;20423;49.448;9.056;2024-01-06T10:46:46;3.40;99.90
34147;DHT22;20423;49.448;9.056;2024-01-06T10:49:13;3.40;99.90
34147;DHT22;20423;49.448;9.056;2024-01-06T10:51:39;3.50;99.90
34147;DHT22;20423;49.448;9.056;2024-01-06T10:54:05;3.70;99.90
34147;DHT22;20423;49.448;9.056;2024-01-06T10:56:32;3.70;99.90
34147;DHT22;20423;49.448;9.056;2024-01-06T10:59:01;3.80;99.90
34147;DHT22;20423;49.448;9.056;2024-01-06T11:01:28;3.80;99.90
34147;DHT22;20423;49.448;9.056;2024-01-06T11:03:54;3.80;99.90
34147;DHT22;20423;49.448;9.056;2024-01-06T11:06:20;3.80;99.90
34147;DHT22;20423;49.448;9.056;2024-01-06T11:09:00;3.70;99.90
34147;DHT22;20423;49.448;9.056;2024-01-06T11:11:27;3.80;99.90
34147;DHT22;20423;49.448;9.056;2024-01-06T11:13:53;4.00;99.90
34147;DHT22;20423;49.448;9.056;2024-01-06T11:16:36;4.00;99.90
34147;DHT22;20423;49.448;9.056;2024-01-06T11:19:02;4.10;99.90
34147;DHT22;20423;49.448;9.056;2024-01-06T11:21:29;4.20;99.90
34147;DHT22;20423;49.448;9.056;2024-01-06T11:26:30;4.20;99.90
34147;DHT22;20423;49.448;9.056;2024-01-06T11:28:55;4.20;99.90
34147;DHT22;20423;49.448;9.056;2024-01-06T11:31:23;4.20;99.90
34147;DHT22;20423;49.448;9.056;2024-01-06T11:33:49;4.20;99.90
34147;DHT22;20423;49.448;9.056;2024-01-06T11:36:16;4.10;99.90
34147;DHT22;20423;49.448;9.056;2024-01-06T11:38:41;4.00;99.90
34147;DHT22;20423;49.448;9.056;2024-01-06T11:41:14;3.90;99.90
34147;DHT22;20423;49.448;9.056;2024-01-06T11:44:06;4.00;99.90
34147;DHT22;20423;49.448;9.056;2024-01-06T11:46:31;4.10;99.90
34147;DHT22;20423;49.448;9.056;2024-01-06T11:48:57;4.20;99.90
34147;DHT22;20423;49.448;9.056;2024-01-06T11:51:23;4.30;99.90
34147;DHT22;20423;49.448;9.056;2024-01-06T11:53:49;4.30;99.90
34147;DHT22;20423;49.448;9.056;2024-01-06T11:56:15;4.30;99.90
34147;DHT22;20423;49.448;9.056;2024-01-06T11:58:41;4.40;99.90
34147;DHT22;20423;49.448;9.056;2024-01-06T12:01:07;4.40;99.90
34147;DHT22;20423;49.448;9.056;2024-01-06T12:03:33;4.50;99.90
34147;DHT22;20423;49.448;9.056;2024-01-06T12:05:59;4.60;99.90
34147;DHT22;20423;49.448;9.056;2024-01-06T12:08:25;4.50;99.90
34147;DHT22;20423;49.448;9.056;2024-01-06T12:10:52;4.70;99.90
34147;DHT22;20423;49.448;9.056;2024-01-06T12:13:26;4.60;99.90
34147;DHT22;20423;49.448;9.056;2024-01-06T12:15:52;4.50;99.90
34147;DHT22;20423;49.448;9.056;2024-01-06T12:18:17;4.60;99.90
34147;DHT22;20423;49.448;9.056;2024-01-06T12:20:43;4.40;99.90
34147;DHT22;20423;49.448;9.056;2024-01-06T12:23:10;4.40;99.90
34147;DHT22;20423;49.448;9.056;2024-01-06T12:25:36;4.40;99.90
34147;DHT22;20423;49.448;9.056;2024-01-06T12:28:01;4.50;99.90
34147;DHT22;20423;49.448;9.056;2024-01-06T12:30:27;4.40;99.90
34147;DHT22;20423;49.448;9.056;2024-01-06T12:33:00;4.40;99.90
34147;DHT22;20423;49.448;9.056;2024-01-06T12:35:26;4.40;99.90
34147;DHT22;20423;49.448;9.056;2024-01-06T12:37:52;4.60;99.90
34147;DHT22;20423;49.448;9.056;2024-01-06T12:40:18;4.60;99.90
34147;DHT22;20423;49.448;9.056;2024-01-06T12:42:45;4.50;99.90
34147;DHT22;20423;49.448;9.056;2024-01-06T12:45:10;4.40;99.90
34147;DHT22;20423;49.448;9.056;2024-01-06T12:47:36;4.30;99.90
34147;DHT22;20423;49.448;9.056;2024-01-06T12:50:02;4.30;99.90
34147;DHT22;20423;49.448;9.056;2024-01-06T12:52:29;4.30;99.90
34147;DHT22;20423;49.448;9.056;2024-01-06T12:54:55;4.20;99.90
34147;DHT22;20423;49.448;9.056;2024-01-06T12:57:20;4.20;99.90
34147;DHT22;20423;49.448;9.056;2024-01-06T12:59:46;4.30;99.90
34147;DHT22;20423;49.448;9.056;2024-01-06T13:02:12;4.30;99.90
34147;DHT22;20423;49.448;9.056;2024-01-06T13:04:38;4.40;99.90
34147;DHT22;20423;49.448;9.056;2024-01-06T13:07:06;4.30;99.90
34147;DHT22;20423;49.448;9.056;2024-01-06T13:09:40;4.30;99.90
34147;DHT22;20423;49.448;9.056;2024-01-06T13:12:06;4.30;99.90
34147;DHT22;20423;49.448;9.056;2024-01-06T13:14:32;4.30;99.90
34147;DHT22;20423;49.448;9.056;2024-01-06T13:16:57;4.30;99.90
34147;DHT22;20423;49.448;9.056;2024-01-06T13:19:23;4.30;99.90
34147;DHT22;20423;49.448;9.056;2024-01-06T13:28:17;4.30;99.90
34147;DHT22;20423;49.448;9.056;2024-01-06T13:30:43;4.20;99.90
34147;DHT22;20423;49.448;9.056;2024-01-06T13:33:10;4.20;99.90
34147;DHT22;20423;49.448;9.056;2024-01-06T13:35:36;4.40;99.90
34147;DHT22;20423;49.448;9.056;2024-01-06T13:38:03;4.40;99.90
34147;DHT22;20423;49.448;9.056;2024-01-06T13:40:31;4.50;99.90
34147;DHT22;20423;49.448;9.056;2024-01-06T13:42:58;4.50;99.90
34147;DHT22;20423;49.448;9.056;2024-01-06T13:45:24;4.50;99.90
34147;DHT22;20423;49.448;9.056;2024-01-06T13:47:49;4.50;99.90
34147;DHT22;20423;49.448;9.056;2024-01-06T13:50:16;4.50;99.90
34147;DHT22;20423;49.448;9.056;2024-01-06T13:52:41;4.50;99.90
34147;DHT22;20423;49.448;9.056;2024-01-06T13:55:07;4.60;99.90
34147;DHT22;20423;49.448;9.056;2024-01-06T13:57:33;4.60;99.90
34147;DHT22;20423;49.448;9.056;2024-01-06T13:59:59;4.40;99.90
34147;DHT22;20423;49.448;9.056;2024-01-06T14:02:25;4.30;99.90
34147;DHT22;20423;49.448;9.056;2024-01-06T14:04:51;4.30;99.90
34147;DHT22;20423;49.448;9.056;2024-01-06T14:07:16;4.30;99.90
34147;DHT22;20423;49.448;9.056;2024-01-06T14:09:47;4.30;99.90
34147;DHT22;20423;49.448;9.056;2024-01-06T14:12:12;4.30;99.90
34147;DHT22;20423;49.448;9.056;2024-01-06T14:14:48;4.30;99.90
34147;DHT22;20423;49.448;9.056;2024-01-06T14:17:14;4.40;99.90
34147;DHT22;20423;49.448;9.056;2024-01-06T14:19:39;4.50;99.90
34147;DHT22;20423;49.448;9.056;2024-01-06T14:22:05;4.30;99.90
34147;DHT22;20423;49.448;9.056;2024-01-06T14:24:31;4.20;99.90
34147;DHT22;20423;49.448;9.056;2024-01-06T14:26:56;4.20;99.90
34147;DHT22;20423;49.448;9.056;2024-01-06T14:29:22;4.20;99.90
34147;DHT22;20423;49.448;9.056;2024-01-06T14:31:48;4.10;99.90
34147;DHT22;20423;49.448;9.056;2024-01-06T14:34:14;4.10;99.90
34147;DHT22;20423;49.448;9.056;2024-01-06T14:36:40;4.10;99.90
34147;DHT22;20423;49.448;9.056;2024-01-06T14:39:16;4.10;99.90
34147;DHT22;20423;49.448;9.056;2024-01-06T14:45:10;4.00;99.90
34147;DHT22;20423;49.448;9.056;2024-01-06T14:47:35;4.00;99.90
34147;DHT22;20423;49.448;9.056;2024-01-06T14:50:01;3.90;99.90
34147;DHT22;20423;49.448;9.056;2024-01-06T14:52:27;3.90;99.90
34147;DHT22;20423;49.448;9.056;2024-01-06T14:54:53;3.90;99.90
34147;DHT22;20423;49.448;9.056;2024-01-06T14:57:21;3.90;99.90
34147;DHT22;20423;49.448;9.056;2024-01-06T14:59:47;3.90;99.90
34147;DHT22;20423;49.448;9.056;2024-01-06T15:02:15;3.80;99.90
34147;DHT22;20423;49.448;9.056;2024-01-06T15:04:41;3.90;99.90
34147;DHT22;20423;49.448;9.056;2024-01-06T15:07:07;3.80;99.90
34147;DHT22;20423;49.448;9.056;2024-01-06T15:09:33;3.80;99.90
34147;DHT22;20423;49.448;9.056;2024-01-06T15:12:01;3.90;99.90
34147;DHT22;20423;49.448;9.056;2024-01-06T15:14:27;3.90;99.90
34147;DHT22;20423;49.448;9.056;2024-01-06T15:16:52;3.90;99.90
34147;DHT22;20423;49.448;9.056;2024-01-06T15:19:18;3.90;99.90
34147;DHT22;20423;49.448;9.056;2024-01-06T15:21:44;3.90;99.90
34147;DHT22;20423;49.448;9.056;2024-01-06T15:24:13;3.80;99.90
34147;DHT22;20423;49.448;9.056;2024-01-06T15:26:40;3.90;99.90
34147;DHT22;20423;49.448;9.056;2024-01-06T15:29:06;3.80;99.90
34147;DHT22;20423;49.448;9.056;2024-01-06T15:31:31;3.80;99.90
34147;DHT22;20423;49.448;9.056;2024-01-06T15:33:57;3.80;99.90
34147;DHT22;20423;49.448;9.056;2024-01-06T15:36:22;3.80;99.90
34147;DHT22;20423;49.448;9.056;2024-01-06T15:38:49;3.90;99.90
34147;DHT22;20423;49.448;9.056;2024-01-06T15:41:14;3.90;99.90
34147;DHT22;20423;49.448;9.056;2024-01-06T15:43:53;3.90;99.90
34147;DHT22;20423;49.448;9.056;2024-01-06T15:46:18;3.90;99.90
34147;DHT22;20423;49.448;9.056;2024-01-06T15:48:46;3.80;99.90
34147;DHT22;20423;49.448;9.056;2024-01-06T15:51:15;3.80;99.90
34147;DHT22;20423;49.448;9.056;2024-01-06T15:53:43;3.80;99.90
34147;DHT22;20423;49.448;9.056;2024-01-06T15:56:09;3.80;99.90